Time;durP1;ratioP1;P1;durP2;ratioP2;P2;SDS_P1;SDS_P2;PMS_P1;PMS_P2;Temp;Humidity;BMP_temperature;BMP_pressure;BME280_temperature;BME280_humidity;BME280_pressure;Samples;Min_cycle;Max_cycle;Signal;HPM_P1;HPM_P2
2022/04/28 00:01:39;;;;;;;;;;;22.40;36.40;;;;;;5071502;28;19948;-62
2022/04/28 00:04:05;;;;;;;;;;;22.40;36.50;;;;;;5069863;28;19908;-62
2022/04/28 00:06:30;;;;;;;;;;;22.40;36.40;;;;;;5071270;28;19912;-62
2022/04/28 00:08:56;;;;;;;;;;;22.40;36.40;;;;;;5070633;28;20354;-61
2022/04/28 00:11:21;;;;;;;;;;;22.40;36.40;;;;;;5070275;28;19908;-62
2022/04/28 00:13:47;;;;;;;;;;;22.30;36.30;;;;;;5071011;28;20293;-62
2022/04/28 00:16:12;;;;;;;;;;;22.40;36.50;;;;;;5071364;28;19909;-62
2022/04/28 00:18:38;;;;;;;;;;;22.30;36.30;;;;;;5069939;28;19909;-62
2022/04/28 00:21:03;;;;;;;;;;;22.30;36.30;;;;;;5071138;28;19916;-62
2022/04/28 00:23:28;;;;;;;;;;;22.30;36.40;;;;;;5071141;28;19954;-62
2022/04/28 00:25:54;;;;;;;;;;;22.30;36.30;;;;;;5070503;28;20299;-62
2022/04/28 00:28:20;;;;;;;;;;;22.30;36.30;;;;;;5069924;28;20296;-62
2022/04/28 00:30:46;;;;;;;;;;;22.30;36.40;;;;;;5071021;28;20378;-62
2022/04/28 00:33:11;;;;;;;;;;;22.30;36.40;;;;;;5071329;28;19908;-62
2022/04/28 00:35:38;;;;;;;;;;;22.30;36.30;;;;;;5069672;28;20390;-62
2022/04/28 00:38:04;;;;;;;;;;;22.30;36.40;;;;;;5071172;28;20051;-61
2022/04/28 00:40:29;;;;;;;;;;;22.30;36.30;;;;;;5074161;28;20043;-62
2022/04/28 00:43:18;;;;;;;;;;;22.30;36.30;;;;;;5074156;28;19920;-62
2022/04/28 00:45:40;;;;;;;;;;;22.20;36.30;;;;;;5074045;28;19946;-62
2022/04/28 00:50:49;;;;;;;;;;;22.30;36.40;;;;;;5056630;28;20435;-62
2022/04/28 00:53:15;;;;;;;;;;;22.20;36.20;;;;;;5054568;28;19945;-62
2022/04/28 00:55:41;;;;;;;;;;;22.20;36.30;;;;;;5068955;28;20214;-62
2022/04/28 00:58:06;;;;;;;;;;;22.20;36.30;;;;;;5074384;28;19966;-62
2022/04/28 01:00:32;;;;;;;;;;;22.20;36.40;;;;;;5073833;28;19908;-62
2022/04/28 01:02:57;;;;;;;;;;;22.20;36.40;;;;;;5074376;28;20383;-62
2022/04/28 01:05:23;;;;;;;;;;;22.10;36.90;;;;;;5056116;28;19908;-62
2022/04/28 01:07:48;;;;;;;;;;;22.10;36.30;;;;;;5074354;28;19916;-62
2022/04/28 01:10:14;;;;;;;;;;;22.10;36.30;;;;;;5073663;28;19969;-61
2022/04/28 01:12:39;;;;;;;;;;;22.10;36.30;;;;;;5072807;28;20372;-61
2022/04/28 01:15:05;;;;;;;;;;;22.10;36.30;;;;;;5072361;28;20358;-62
2022/04/28 01:17:30;;;;;;;;;;;22.10;36.30;;;;;;5073792;28;19962;-62
2022/04/28 01:19:56;;;;;;;;;;;22.10;36.40;;;;;;5073887;28;19923;-62
2022/04/28 01:22:21;;;;;;;;;;;22.10;36.40;;;;;;5069259;28;20345;-62
2022/04/28 01:24:47;;;;;;;;;;;22.10;36.40;;;;;;5052214;28;19913;-62
2022/04/28 01:27:12;;;;;;;;;;;22.10;36.40;;;;;;5053961;28;19908;-62
2022/04/28 01:29:38;;;;;;;;;;;22.10;36.40;;;;;;5067692;28;19974;-62
2022/04/28 01:32:03;;;;;;;;;;;22.00;36.40;;;;;;5073707;28;19982;-62
2022/04/28 01:34:29;;;;;;;;;;;22.00;36.40;;;;;;5073752;28;19913;-62
2022/04/28 01:36:54;;;;;;;;;;;22.00;36.40;;;;;;5073791;28;19909;-62
2022/04/28 01:39:20;;;;;;;;;;;22.00;36.40;;;;;;5071902;28;19908;-62
2022/04/28 01:41:47;;;;;;;;;;;22.00;36.40;;;;;;5073624;28;20086;-62
2022/04/28 01:44:12;;;;;;;;;;;22.00;36.40;;;;;;5071595;28;19912;-61
2022/04/28 01:46:38;;;;;;;;;;;22.00;36.50;;;;;;5073586;28;19912;-62
2022/04/28 01:49:03;;;;;;;;;;;22.00;36.50;;;;;;5072710;28;20439;-62
2022/04/28 01:56:57;;;;;;;;;;;21.90;36.40;;;;;;5073205;28;20481;-61
2022/04/28 01:59:22;;;;;;;;;;;22.00;36.50;;;;;;5072828;28;19944;-61
2022/04/28 02:01:48;;;;;;;;;;;21.90;36.40;;;;;;5073222;28;19920;-61
2022/04/28 02:04:13;;;;;;;;;;;21.90;36.40;;;;;;5072779;28;20021;-62
2022/04/28 02:06:39;;;;;;;;;;;21.90;36.40;;;;;;5072791;28;19916;-62
2022/04/28 02:09:05;;;;;;;;;;;21.80;36.40;;;;;;5071231;28;19953;-62
2022/04/28 02:11:30;;;;;;;;;;;21.80;36.30;;;;;;5059935;28;20277;-62
2022/04/28 02:13:56;;;;;;;;;;;21.80;36.40;;;;;;5052463;28;19959;-62
2022/04/28 02:16:21;;;;;;;;;;;21.70;36.50;;;;;;5053088;28;19959;-62
2022/04/28 02:18:47;;;;;;;;;;;21.70;36.60;;;;;;5052859;28;19915;-62
2022/04/28 02:21:12;;;;;;;;;;;21.60;36.70;;;;;;5071763;28;19908;-62
2022/04/28 02:23:37;;;;;;;;;;;21.60;36.70;;;;;;5072694;28;20369;-62
2022/04/28 02:26:03;;;;;;;;;;;21.60;36.80;;;;;;5072105;28;19913;-62
2022/04/28 02:28:28;;;;;;;;;;;21.60;36.60;;;;;;5072626;28;19916;-62
2022/04/28 02:30:54;;;;;;;;;;;21.60;36.50;;;;;;5061690;28;19909;-62
2022/04/28 02:33:19;;;;;;;;;;;21.60;36.70;;;;;;5052645;28;19920;-61
2022/04/28 02:35:45;;;;;;;;;;;21.50;36.80;;;;;;5052440;28;19963;-62
2022/04/28 02:38:11;;;;;;;;;;;21.40;36.90;;;;;;5071613;28;19908;-62
2022/04/28 02:40:36;;;;;;;;;;;21.30;36.90;;;;;;5072082;28;19924;-62
2022/04/28 02:43:02;;;;;;;;;;;21.30;36.90;;;;;;5072020;28;19935;-62
2022/04/28 02:45:27;;;;;;;;;;;21.20;36.90;;;;;;5070605;28;19946;-62
2022/04/28 02:47:53;;;;;;;;;;;21.20;36.90;;;;;;5071236;28;19915;-61
2022/04/28 02:50:21;;;;;;;;;;;21.20;37.00;;;;;;5058461;28;19921;-61
2022/04/28 02:52:47;;;;;;;;;;;21.20;37.60;;;;;;5040814;28;20023;-62
2022/04/28 02:55:12;;;;;;;;;;;21.20;36.90;;;;;;5071672;28;20373;-62
2022/04/28 02:57:38;;;;;;;;;;;21.20;36.90;;;;;;5072287;28;19923;-62
2022/04/28 03:00:04;;;;;;;;;;;21.30;36.90;;;;;;5071454;28;19923;-62
2022/04/28 03:02:30;;;;;;;;;;;21.20;36.90;;;;;;5070446;28;19908;-62
2022/04/28 03:04:56;;;;;;;;;;;21.30;36.90;;;;;;5071878;28;19954;-62
2022/04/28 03:12:50;;;;;;;;;;;21.30;36.90;;;;;;5072210;28;19915;-62
2022/04/28 03:15:15;;;;;;;;;;;21.20;36.90;;;;;;5070280;28;19908;-62
2022/04/28 03:17:41;;;;;;;;;;;21.20;36.90;;;;;;5072068;28;20356;-62
2022/04/28 03:20:06;;;;;;;;;;;21.20;36.90;;;;;;5071413;28;19912;-62
2022/04/28 03:22:36;;;;;;;;;;;21.20;36.90;;;;;;5055704;28;19908;-62
2022/04/28 03:25:02;;;;;;;;;;;21.20;37.00;;;;;;5051680;28;20378;-62
2022/04/28 03:27:28;;;;;;;;;;;21.20;37.00;;;;;;5055493;28;19913;-61
2022/04/28 03:29:53;;;;;;;;;;;21.20;37.00;;;;;;5071186;28;19916;-61
2022/04/28 03:32:19;;;;;;;;;;;21.20;37.00;;;;;;5071809;28;19919;-62
2022/04/28 03:34:44;;;;;;;;;;;21.20;37.00;;;;;;5071401;28;20326;-62
2022/04/28 03:37:10;;;;;;;;;;;21.20;37.10;;;;;;5070375;28;19966;-62
2022/04/28 03:39:37;;;;;;;;;;;21.20;37.10;;;;;;5071299;28;19994;-62
2022/04/28 03:42:03;;;;;;;;;;;21.20;37.10;;;;;;5070549;28;20380;-61
2022/04/28 03:44:29;;;;;;;;;;;21.20;37.10;;;;;;5070616;28;20372;-62
2022/04/28 03:46:55;;;;;;;;;;;21.20;37.00;;;;;;5071663;28;19963;-62
2022/04/28 03:49:20;;;;;;;;;;;21.20;37.00;;;;;;5071400;28;20359;-62
2022/04/28 03:51:45;;;;;;;;;;;21.20;37.00;;;;;;5071533;28;20460;-62
2022/04/28 03:54:11;;;;;;;;;;;21.20;37.00;;;;;;5070361;28;19974;-62
2022/04/28 03:56:36;;;;;;;;;;;21.20;36.90;;;;;;5070135;28;20434;-62
2022/04/28 03:59:02;;;;;;;;;;;21.20;36.90;;;;;;5070941;28;19916;-62
2022/04/28 04:01:28;;;;;;;;;;;21.20;37.00;;;;;;5071428;28;20052;-62
2022/04/28 04:03:53;;;;;;;;;;;21.20;36.90;;;;;;5071206;28;19913;-62
2022/04/28 04:06:19;;;;;;;;;;;21.20;37.00;;;;;;5070206;28;19935;-61
2022/04/28 04:08:45;;;;;;;;;;;21.20;37.00;;;;;;5071193;28;20004;-62
2022/04/28 04:11:11;;;;;;;;;;;21.10;37.70;;;;;;5069179;28;19952;-62
2022/04/28 04:13:37;;;;;;;;;;;21.10;37.10;;;;;;5071976;28;20281;-62
2022/04/28 04:16:02;;;;;;;;;;;21.10;37.10;;;;;;5075047;28;19915;-62
2022/04/28 04:18:28;;;;;;;;;;;21.10;37.10;;;;;;5075187;28;20372;-62
2022/04/28 04:20:53;;;;;;;;;;;21.10;37.10;;;;;;5074942;28;19990;-62
2022/04/28 04:23:19;;;;;;;;;;;21.00;37.10;;;;;;5075023;28;19919;-62
2022/04/28 04:25:44;;;;;;;;;;;21.00;37.20;;;;;;5074215;28;19916;-62
2022/04/28 04:28:10;;;;;;;;;;;21.10;37.30;;;;;;5074699;28;19919;-61
2022/04/28 04:33:19;;;;;;;;;;;21.10;37.10;;;;;;5074860;28;19915;-62
2022/04/28 04:35:45;;;;;;;;;;;21.10;37.10;;;;;;5074673;28;19909;-62
2022/04/28 04:38:10;;;;;;;;;;;21.10;37.10;;;;;;5074504;28;19971;-62
2022/04/28 04:40:36;;;;;;;;;;;21.10;37.10;;;;;;5074040;28;19952;-62
2022/04/28 04:43:02;;;;;;;;;;;21.10;37.10;;;;;;5074297;28;19909;-62
2022/04/28 04:45:28;;;;;;;;;;;21.10;37.10;;;;;;5073904;28;20342;-62
2022/04/28 04:47:53;;;;;;;;;;;21.10;37.10;;;;;;5073111;28;19912;-62
2022/04/28 04:50:19;;;;;;;;;;;21.10;37.10;;;;;;5060712;28;20308;-61
2022/04/28 04:52:44;;;;;;;;;;;21.10;37.00;;;;;;5061198;28;19961;-62
2022/04/28 04:55:10;;;;;;;;;;;21.10;37.00;;;;;;5073806;28;19935;-62
2022/04/28 04:57:37;;;;;;;;;;;21.10;37.00;;;;;;5073038;28;22489;-62
2022/04/28 05:00:04;;;;;;;;;;;21.10;37.00;;;;;;5072415;28;19992;-62
2022/04/28 05:02:29;;;;;;;;;;;21.10;37.00;;;;;;5074511;28;19912;-62
2022/04/28 05:04:55;;;;;;;;;;;21.10;37.10;;;;;;5074176;28;20376;-61
2022/04/28 05:07:20;;;;;;;;;;;21.00;37.00;;;;;;5073235;28;20434;-62
2022/04/28 05:09:46;;;;;;;;;;;21.00;36.90;;;;;;5073834;28;20055;-62
2022/04/28 05:12:11;;;;;;;;;;;21.00;37.60;;;;;;5074207;28;19909;-62
2022/04/28 05:14:37;;;;;;;;;;;21.10;37.10;;;;;;5072394;28;19923;-61
2022/04/28 05:17:02;;;;;;;;;;;21.10;37.00;;;;;;5074080;28;19954;-62
2022/04/28 05:19:28;;;;;;;;;;;21.00;37.00;;;;;;5073974;28;19965;-62
2022/04/28 05:21:55;;;;;;;;;;;21.00;37.00;;;;;;5073919;28;19916;-62
2022/04/28 05:24:20;;;;;;;;;;;21.10;37.10;;;;;;5073464;28;20299;-62
2022/04/28 05:26:46;;;;;;;;;;;21.00;37.00;;;;;;5074140;28;19909;-62
2022/04/28 05:29:11;;;;;;;;;;;21.00;37.00;;;;;;5073356;28;20011;-62
2022/04/28 05:31:37;;;;;;;;;;;21.00;37.00;;;;;;5057124;28;20377;-61
2022/04/28 05:34:02;;;;;;;;;;;21.00;37.00;;;;;;5053879;28;20349;-62
2022/04/28 05:36:28;;;;;;;;;;;21.10;37.10;;;;;;5053711;28;19913;-62
2022/04/28 05:38:54;;;;;;;;;;;21.10;37.10;;;;;;5056272;28;19913;-62
2022/04/28 05:41:20;;;;;;;;;;;21.10;37.10;;;;;;5063571;28;19920;-61
2022/04/28 05:46:29;;;;;;;;;;;21.00;37.10;;;;;;5073820;28;20292;-62
2022/04/28 05:48:55;;;;;;;;;;;21.00;37.10;;;;;;5073137;28;19920;-61
2022/04/28 05:51:20;;;;;;;;;;;21.00;37.10;;;;;;5073268;28;19931;-62
2022/04/28 05:53:46;;;;;;;;;;;21.00;37.20;;;;;;5073165;28;19908;-61
2022/04/28 05:56:11;;;;;;;;;;;21.00;37.20;;;;;;5072988;28;19912;-61
2022/04/28 05:58:37;;;;;;;;;;;21.00;37.20;;;;;;5074180;28;19915;-62
2022/04/28 06:01:02;;;;;;;;;;;21.00;37.20;;;;;;5071855;28;19912;-62
2022/04/28 06:03:28;;;;;;;;;;;21.00;37.20;;;;;;5080755;28;19912;-62
2022/04/28 06:05:53;;;;;;;;;;;21.10;37.30;;;;;;5083130;28;19951;-61
2022/04/28 06:08:19;;;;;;;;;;;21.10;37.30;;;;;;5088338;28;20288;-61
2022/04/28 06:10:44;;;;;;;;;;;21.00;37.40;;;;;;5090245;28;19912;-61
2022/04/28 06:13:10;;;;;;;;;;;21.00;37.50;;;;;;5078959;28;19948;-61
2022/04/28 06:15:35;;;;;;;;;;;20.90;37.40;;;;;;5071090;28;19908;-61
2022/04/28 06:18:01;;;;;;;;;;;20.90;37.40;;;;;;5072815;28;19909;-62
2022/04/28 06:20:26;;;;;;;;;;;21.00;37.50;;;;;;5072622;28;19999;-62
2022/04/28 06:22:52;;;;;;;;;;;21.00;37.50;;;;;;5072839;28;19908;-61
2022/04/28 06:25:17;;;;;;;;;;;21.00;37.40;;;;;;5076204;28;19908;-62
2022/04/28 06:27:42;;;;;;;;;;;21.00;38.20;;;;;;5073845;28;19924;-62
2022/04/28 06:30:08;;;;;;;;;;;21.00;37.50;;;;;;5080147;28;19923;-62
2022/04/28 06:32:34;;;;;;;;;;;21.00;37.60;;;;;;5072954;28;19928;-62
2022/04/28 06:34:59;;;;;;;;;;;21.00;37.60;;;;;;5077939;28;19999;-62
2022/04/28 06:37:25;;;;;;;;;;;20.90;37.60;;;;;;5075748;28;19935;-62
2022/04/28 06:39:50;;;;;;;;;;;20.90;37.70;;;;;;5079186;28;19916;-62
2022/04/28 06:42:16;;;;;;;;;;;20.90;37.70;;;;;;5090891;28;19926;-62
2022/04/28 06:44:41;;;;;;;;;;;20.90;37.80;;;;;;5075776;28;19928;-62
2022/04/28 06:47:07;;;;;;;;;;;20.90;37.90;;;;;;5090332;28;20360;-62
2022/04/28 06:49:33;;;;;;;;;;;20.90;37.90;;;;;;5084444;28;19913;-62
2022/04/28 06:51:58;;;;;;;;;;;20.90;37.90;;;;;;5081492;28;20408;-62
2022/04/28 06:54:24;;;;;;;;;;;20.90;38.00;;;;;;5082520;28;20011;-62
2022/04/28 06:56:49;;;;;;;;;;;20.90;38.00;;;;;;5092171;28;19908;-62
2022/04/28 06:59:15;;;;;;;;;;;20.90;38.00;;;;;;5091285;28;20432;-62
2022/04/28 07:01:40;;;;;;;;;;;20.90;37.90;;;;;;5066082;28;20396;-62
2022/04/28 07:04:06;;;;;;;;;;;20.90;37.90;;;;;;5091847;28;19908;-62
2022/04/28 07:06:31;;;;;;;;;;;20.90;38.00;;;;;;5077866;28;19960;-62
2022/04/28 07:08:56;;;;;;;;;;;20.90;38.00;;;;;;5076382;28;19913;-62
2022/04/28 07:11:24;;;;;;;;;;;20.90;38.10;;;;;;5075627;28;19908;-63
2022/04/28 07:13:49;;;;;;;;;;;20.90;38.10;;;;;;5091545;28;20364;-62
2022/04/28 07:16:15;;;;;;;;;;;20.80;38.10;;;;;;5091474;28;19912;-62
2022/04/28 07:18:40;;;;;;;;;;;20.80;38.10;;;;;;5090639;28;20066;-62
2022/04/28 07:21:06;;;;;;;;;;;20.80;38.20;;;;;;5088100;28;19909;-62
2022/04/28 07:23:31;;;;;;;;;;;20.80;38.20;;;;;;5084153;28;19912;-62
2022/04/28 07:25:57;;;;;;;;;;;20.80;38.20;;;;;;5064295;28;19909;-62
2022/04/28 07:28:22;;;;;;;;;;;20.90;38.30;;;;;;5069982;28;19908;-62
2022/04/28 07:30:48;;;;;;;;;;;20.80;38.30;;;;;;5068587;28;19916;-62
2022/04/28 07:33:13;;;;;;;;;;;20.80;38.40;;;;;;5091316;28;19914;-62
2022/04/28 07:35:38;;;;;;;;;;;20.80;38.50;;;;;;5091072;28;20403;-62
2022/04/28 07:38:04;;;;;;;;;;;20.70;38.40;;;;;;5085811;28;20007;-62
2022/04/28 07:40:30;;;;;;;;;;;20.70;38.40;;;;;;5063974;28;19908;-61
2022/04/28 07:42:55;;;;;;;;;;;20.70;38.40;;;;;;5079393;28;19909;-62
2022/04/28 07:45:22;;;;;;;;;;;20.80;38.40;;;;;;5073977;28;19924;-62
2022/04/28 07:47:49;;;;;;;;;;;20.80;38.30;;;;;;5092301;28;19953;-61
2022/04/28 07:50:14;;;;;;;;;;;20.80;38.20;;;;;;5093726;28;19923;-61
2022/04/28 07:52:40;;;;;;;;;;;20.80;38.10;;;;;;5080495;28;19912;-62
2022/04/28 07:55:06;;;;;;;;;;;20.90;38.10;;;;;;5091520;28;20348;-62
2022/04/28 07:57:32;;;;;;;;;;;20.90;38.10;;;;;;5088087;28;20237;-62
2022/04/28 07:59:57;;;;;;;;;;;20.90;38.10;;;;;;5084680;28;19909;-62
2022/04/28 08:02:22;;;;;;;;;;;20.90;38.10;;;;;;5087540;28;19909;-62
2022/04/28 08:04:48;;;;;;;;;;;20.90;38.10;;;;;;5094877;28;19912;-62
2022/04/28 08:07:13;;;;;;;;;;;20.90;38.10;;;;;;5095013;28;19955;-62
2022/04/28 08:09:39;;;;;;;;;;;20.90;38.10;;;;;;5083413;28;19916;-62
2022/04/28 08:12:05;;;;;;;;;;;20.90;38.10;;;;;;5095164;28;19908;-62
2022/04/28 08:14:32;;;;;;;;;;;20.90;38.10;;;;;;5080850;28;19908;-62
2022/04/28 08:16:58;;;;;;;;;;;20.90;38.10;;;;;;5082870;28;20361;-62
2022/04/28 08:19:23;;;;;;;;;;;20.90;38.00;;;;;;5078259;28;19918;-62
2022/04/28 08:21:49;;;;;;;;;;;21.00;38.00;;;;;;5087315;28;19948;-62
2022/04/28 08:24:14;;;;;;;;;;;21.00;37.90;;;;;;5091078;28;20426;-62
2022/04/28 08:26:40;;;;;;;;;;;21.00;37.80;;;;;;5088052;28;19919;-62
2022/04/28 08:29:05;;;;;;;;;;;21.00;37.80;;;;;;5066031;28;19916;-61
2022/04/28 08:31:31;;;;;;;;;;;21.00;37.80;;;;;;5087434;28;20275;-62
2022/04/28 08:33:56;;;;;;;;;;;21.00;37.70;;;;;;5085121;28;19915;-62
2022/04/28 08:36:22;;;;;;;;;;;21.00;37.80;;;;;;5086371;28;19919;-62
2022/04/28 08:38:47;;;;;;;;;;;21.10;37.70;;;;;;5084239;28;19912;-63
2022/04/28 08:41:13;;;;;;;;;;;21.10;37.70;;;;;;5093255;28;20066;-62
2022/04/28 08:43:38;;;;;;;;;;;21.20;37.70;;;;;;5092558;28;20415;-62
2022/04/28 08:48:52;;;;;;;;;;;21.30;37.70;;;;;;5079141;28;19927;-62
2022/04/28 08:51:19;;;;;;;;;;;21.30;37.70;;;;;;5067774;28;19908;-62
2022/04/28 08:53:48;;;;;;;;;;;21.20;37.60;;;;;;5093889;28;19918;-62
2022/04/28 08:56:14;;;;;;;;;;;21.20;37.70;;;;;;5093595;28;20022;-62
2022/04/28 08:58:40;;;;;;;;;;;21.20;37.80;;;;;;5092428;28;20292;-62
2022/04/28 09:01:05;;;;;;;;;;;21.20;37.90;;;;;;5067181;28;19909;-62
2022/04/28 09:03:31;;;;;;;;;;;21.20;37.80;;;;;;5093712;28;20013;-62
2022/04/28 09:05:56;;;;;;;;;;;21.20;37.90;;;;;;5086774;28;20007;-62
2022/04/28 09:08:22;;;;;;;;;;;21.20;38.00;;;;;;5081268;28;19909;-62
2022/04/28 09:10:47;;;;;;;;;;;21.20;38.00;;;;;;5089207;28;19962;-62
2022/04/28 09:15:57;;;;;;;;;;;21.20;38.00;;;;;;5093555;28;19916;-62
2022/04/28 09:18:22;;;;;;;;;;;21.20;38.00;;;;;;5093665;28;19908;-62
2022/04/28 09:20:48;;;;;;;;;;;21.20;37.90;;;;;;5081493;28;19958;-62
2022/04/28 09:23:13;;;;;;;;;;;21.20;38.00;;;;;;5077686;28;20367;-62
2022/04/28 09:25:39;;;;;;;;;;;21.20;38.00;;;;;;5078298;28;20308;-62
2022/04/28 09:28:05;;;;;;;;;;;21.20;38.00;;;;;;5081942;28;19944;-62
2022/04/28 09:30:35;;;;;;;;;;;21.30;37.90;;;;;;5092845;28;20040;-62
2022/04/28 09:33:12;;;;;;;;;;;21.30;37.90;;;;;;5093315;28;19955;-62
2022/04/28 09:35:58;;;;;;;;;;;21.30;38.00;;;;;;5091878;28;19915;-62
2022/04/28 09:38:24;;;;;;;;;;;21.30;37.80;;;;;;5085539;28;20002;-62
2022/04/28 09:43:33;;;;;;;;;;;21.40;38.00;;;;;;5077484;28;19997;-62
2022/04/28 09:46:00;;;;;;;;;;;21.40;38.00;;;;;;5093122;28;19928;-62
2022/04/28 09:48:27;;;;;;;;;;;21.40;38.10;;;;;;5092989;28;19908;-61
2022/04/28 09:50:57;;;;;;;;;;;21.40;38.00;;;;;;5089104;28;19998;-62
2022/04/28 09:53:22;;;;;;;;;;;21.40;38.10;;;;;;5093472;28;19954;-62
2022/04/28 09:55:50;;;;;;;;;;;21.50;38.20;;;;;;5086093;28;19913;-62
2022/04/28 09:58:15;;;;;;;;;;;21.50;38.10;;;;;;5079851;28;19956;-62
2022/04/28 10:00:41;;;;;;;;;;;21.50;38.10;;;;;;5085882;28;20493;-62
2022/04/28 10:03:08;;;;;;;;;;;21.50;38.10;;;;;;5092847;28;20010;-62
2022/04/28 10:05:33;;;;;;;;;;;21.50;38.30;;;;;;5092689;28;19915;-62
2022/04/28 10:07:59;;;;;;;;;;;21.40;38.30;;;;;;5089146;28;19916;-62
2022/04/28 10:10:26;;;;;;;;;;;21.40;38.40;;;;;;5084901;28;19916;-62
2022/04/28 10:12:51;;;;;;;;;;;21.40;38.50;;;;;;5084198;28;19909;-62
2022/04/28 10:15:16;;;;;;;;;;;21.30;38.40;;;;;;5087531;28;20151;-62
2022/04/28 10:17:46;;;;;;;;;;;21.40;38.60;;;;;;5079256;28;19908;-62
2022/04/28 10:20:14;;;;;;;;;;;21.30;38.60;;;;;;5081724;28;19919;-62
2022/04/28 10:22:39;;;;;;;;;;;21.30;38.70;;;;;;5076407;28;20304;-62
2022/04/28 10:33:23;;;;;;;;;;;21.30;38.90;;;;;;5072320;28;19916;-62
2022/04/28 10:35:54;;;;;;;;;;;21.30;38.80;;;;;;5049312;28;19924;-62
2022/04/28 10:38:26;;;;;;;;;;;21.30;38.90;;;;;;5057918;28;19912;-62
2022/04/28 10:41:04;;;;;;;;;;;21.30;39.00;;;;;;5072199;28;19908;-62
2022/04/28 10:43:30;;;;;;;;;;;21.30;39.00;;;;;;5071774;28;19948;-62
2022/04/28 10:45:56;;;;;;;;;;;21.30;39.00;;;;;;5072023;28;19967;-63
2022/04/28 10:51:12;;;;;;;;;;;21.30;39.20;;;;;;5071925;28;20334;-63
2022/04/28 10:54:21;;;;;;;;;;;21.30;39.10;;;;;;5070669;28;20277;-63
2022/04/28 10:56:56;;;;;;;;;;;21.30;39.10;;;;;;5009997;28;19910;-63
2022/04/28 10:59:24;;;;;;;;;;;21.30;39.10;;;;;;5065975;28;19908;-63
2022/04/28 11:01:50;;;;;;;;;;;21.30;39.10;;;;;;5072310;28;20387;-62
2022/04/28 11:04:15;;;;;;;;;;;21.30;39.20;;;;;;5070729;28;19909;-62
2022/04/28 11:06:46;;;;;;;;;;;21.30;39.20;;;;;;5065342;28;19912;-62
2022/04/28 11:09:12;;;;;;;;;;;21.30;39.10;;;;;;5071298;28;20444;-62
2022/04/28 11:11:41;;;;;;;;;;;21.40;39.20;;;;;;5071990;28;19912;-62
2022/04/28 11:14:08;;;;;;;;;;;21.40;39.50;;;;;;5070106;28;20014;-62
2022/04/28 11:16:33;;;;;;;;;;;21.40;39.30;;;;;;5071881;28;19909;-62
2022/04/28 11:18:59;;;;;;;;;;;21.40;39.20;;;;;;5053502;28;19923;-62
2022/04/28 11:21:24;;;;;;;;;;;21.40;39.20;;;;;;5058484;28;19915;-62
2022/04/28 11:23:51;;;;;;;;;;;21.40;39.30;;;;;;5070107;28;19916;-62
2022/04/28 11:26:17;;;;;;;;;;;21.40;39.30;;;;;;5070489;28;19916;-63
2022/04/28 11:28:42;;;;;;;;;;;21.50;39.40;;;;;;5057786;28;19913;-63
2022/04/28 11:31:09;;;;;;;;;;;21.50;39.30;;;;;;5051724;28;19917;-63
2022/04/28 11:33:35;;;;;;;;;;;21.50;39.30;;;;;;5051874;28;19997;-62
2022/04/28 11:36:02;;;;;;;;;;;21.50;39.40;;;;;;5051429;28;19947;-62
2022/04/28 11:38:31;;;;;;;;;;;21.50;39.40;;;;;;5071235;28;19985;-62
2022/04/28 11:40:57;;;;;;;;;;;21.50;39.40;;;;;;5070885;28;19928;-62
2022/04/28 11:43:27;;;;;;;;;;;21.60;39.50;;;;;;5071787;28;19912;-63
2022/04/28 11:45:53;;;;;;;;;;;21.50;39.40;;;;;;5066273;28;19974;-63
2022/04/28 11:48:20;;;;;;;;;;;21.60;39.60;;;;;;5071437;28;19921;-62
2022/04/28 11:50:47;;;;;;;;;;;21.60;39.60;;;;;;5066745;28;19973;-62
2022/04/28 11:53:12;;;;;;;;;;;21.60;39.80;;;;;;5064075;28;19934;-63
2022/04/28 11:55:40;;;;;;;;;;;21.60;39.80;;;;;;5071309;28;19935;-63
2022/04/28 11:58:09;;;;;;;;;;;21.60;39.90;;;;;;5071706;28;19908;-62
2022/04/28 12:00:38;;;;;;;;;;;21.60;40.00;;;;;;5069669;28;20284;-62
2022/04/28 12:03:03;;;;;;;;;;;21.60;40.00;;;;;;5069581;28;19916;-62
2022/04/28 12:05:32;;;;;;;;;;;21.60;40.00;;;;;;5080648;28;19920;-62
2022/04/28 12:07:57;;;;;;;;;;;21.70;40.20;;;;;;5081716;28;20353;-62
2022/04/28 12:16:01;;;;;;;;;;;21.60;40.30;;;;;;5086577;28;19914;-62
2022/04/28 12:21:24;;;;;;;;;;;21.70;40.50;;;;;;5084355;28;19918;-62
2022/04/28 12:23:51;;;;;;;;;;;21.70;40.60;;;;;;5075981;28;19916;-62
2022/04/28 12:26:19;;;;;;;;;;;21.70;40.60;;;;;;5090624;28;20332;-62
2022/04/28 12:28:45;;;;;;;;;;;21.70;40.70;;;;;;5089379;28;19961;-62
2022/04/28 12:31:11;;;;;;;;;;;21.70;40.80;;;;;;5086793;28;20271;-62
2022/04/28 12:33:38;;;;;;;;;;;21.70;40.80;;;;;;5081851;28;19912;-62
2022/04/28 12:36:04;;;;;;;;;;;21.80;40.80;;;;;;5094069;28;20417;-62
2022/04/28 12:38:39;;;;;;;;;;;21.80;40.70;;;;;;5087247;28;19999;-62
2022/04/28 12:41:15;;;;;;;;;;;21.80;40.60;;;;;;5067795;28;19939;-62
2022/04/28 12:43:44;;;;;;;;;;;21.90;40.60;;;;;;5093596;28;19916;-62
2022/04/28 12:46:09;;;;;;;;;;;21.90;40.60;;;;;;5085660;28;19921;-62
2022/04/28 12:48:35;;;;;;;;;;;22.00;40.60;;;;;;5087236;28;20626;-62
2022/04/28 12:51:08;;;;;;;;;;;22.00;40.60;;;;;;5080640;28;19914;-62
2022/04/28 12:53:33;;;;;;;;;;;22.00;40.60;;;;;;5094106;28;19932;-62
2022/04/28 12:56:03;;;;;;;;;;;22.00;40.60;;;;;;5092494;28;19923;-62
2022/04/28 12:58:28;;;;;;;;;;;22.10;40.60;;;;;;5080749;28;20011;-62
2022/04/28 13:00:54;;;;;;;;;;;22.10;40.40;;;;;;5093827;28;20034;-62
2022/04/28 13:03:28;;;;;;;;;;;22.10;40.50;;;;;;5092662;28;19912;-62
2022/04/28 13:05:55;;;;;;;;;;;22.10;41.10;;;;;;5085247;28;20383;-62
2022/04/28 13:08:20;;;;;;;;;;;22.10;40.50;;;;;;5084965;28;20338;-62
2022/04/28 13:10:46;;;;;;;;;;;22.10;40.40;;;;;;5093393;28;19912;-62
2022/04/28 13:13:11;;;;;;;;;;;22.10;40.40;;;;;;5093895;28;20006;-62
2022/04/28 13:15:36;;;;;;;;;;;22.10;40.30;;;;;;5093511;28;19953;-62
2022/04/28 13:18:02;;;;;;;;;;;22.20;40.50;;;;;;5072873;28;19952;-62
2022/04/28 13:20:27;;;;;;;;;;;22.10;40.50;;;;;;5080500;28;19915;-62
2022/04/28 13:22:53;;;;;;;;;;;22.10;40.50;;;;;;5085116;28;19909;-62
2022/04/28 13:25:18;;;;;;;;;;;22.10;40.50;;;;;;5081630;28;19939;-63
2022/04/28 13:27:44;;;;;;;;;;;22.10;40.50;;;;;;5093662;28;19912;-62
2022/04/28 13:30:10;;;;;;;;;;;22.10;40.70;;;;;;5092976;28;19912;-62
2022/04/28 13:32:36;;;;;;;;;;;22.10;40.70;;;;;;5093593;28;20279;-62
2022/04/28 13:35:02;;;;;;;;;;;22.10;40.70;;;;;;5093242;28;19915;-62
2022/04/28 13:37:28;;;;;;;;;;;22.10;40.70;;;;;;5081999;28;20345;-62
2022/04/28 13:39:53;;;;;;;;;;;22.10;40.60;;;;;;5078159;28;19908;-62
2022/04/28 13:42:19;;;;;;;;;;;22.10;40.60;;;;;;5090403;28;19923;-63
2022/04/28 13:44:45;;;;;;;;;;;22.20;40.70;;;;;;5092650;28;19920;-62
2022/04/28 13:47:10;;;;;;;;;;;22.20;40.70;;;;;;5093214;28;19908;-62
2022/04/28 13:49:36;;;;;;;;;;;22.20;40.60;;;;;;5092819;28;19919;-62
2022/04/28 13:52:02;;;;;;;;;;;22.30;40.60;;;;;;5093270;28;20354;-62
2022/04/28 13:54:27;;;;;;;;;;;22.30;40.50;;;;;;5082654;28;20054;-62
2022/04/28 13:56:53;;;;;;;;;;;22.30;40.60;;;;;;5083439;28;20372;-62
2022/04/28 13:59:18;;;;;;;;;;;22.30;40.50;;;;;;5080461;28;19916;-62
2022/04/28 14:01:44;;;;;;;;;;;22.30;40.40;;;;;;5089085;28;19923;-63
2022/04/28 14:04:09;;;;;;;;;;;22.30;40.90;;;;;;5087472;28;20401;-63
2022/04/28 14:06:35;;;;;;;;;;;22.40;40.30;;;;;;5088101;28;19916;-63
2022/04/28 14:09:01;;;;;;;;;;;22.40;40.30;;;;;;5086332;28;19919;-62
2022/04/28 14:11:26;;;;;;;;;;;22.40;40.30;;;;;;5091546;28;19963;-62
2022/04/28 14:13:52;;;;;;;;;;;22.40;40.20;;;;;;5082561;28;19967;-62
2022/04/28 14:16:17;;;;;;;;;;;22.40;40.20;;;;;;5089431;28;19912;-62
2022/04/28 14:18:43;;;;;;;;;;;22.40;40.20;;;;;;5092623;28;19915;-62
2022/04/28 14:21:09;;;;;;;;;;;22.40;40.30;;;;;;5077660;28;20193;-62
2022/04/28 14:23:34;;;;;;;;;;;22.30;40.30;;;;;;5074436;28;20360;-62
2022/04/28 14:26:00;;;;;;;;;;;22.30;40.30;;;;;;5092272;28;19908;-62
2022/04/28 14:28:25;;;;;;;;;;;22.40;40.20;;;;;;5075866;28;19909;-63
2022/04/28 14:30:51;;;;;;;;;;;22.40;40.30;;;;;;5082921;28;20011;-63
2022/04/28 14:33:16;;;;;;;;;;;22.40;40.40;;;;;;5069613;28;19950;-62
2022/04/28 14:35:42;;;;;;;;;;;22.40;40.50;;;;;;5092065;28;19908;-62
2022/04/28 14:38:07;;;;;;;;;;;22.40;40.50;;;;;;5077068;28;20021;-62
2022/04/28 14:40:32;;;;;;;;;;;22.30;41.00;;;;;;5060138;28;19909;-62
2022/04/28 14:42:58;;;;;;;;;;;22.30;41.20;;;;;;5092420;28;20276;-62
2022/04/28 14:45:23;;;;;;;;;;;22.30;40.70;;;;;;5090248;28;20022;-62
2022/04/28 14:47:49;;;;;;;;;;;22.30;41.50;;;;;;5069780;28;19920;-62
2022/04/28 14:52:59;;;;;;;;;;;22.30;40.70;;;;;;5051404;28;19927;-62
2022/04/28 14:55:24;;;;;;;;;;;22.30;41.60;;;;;;5051826;28;20004;-61
2022/04/28 14:57:50;;;;;;;;;;;22.30;41.30;;;;;;5059594;28;20015;-62
2022/04/28 15:00:17;;;;;;;;;;;22.30;40.90;;;;;;5069034;28;19919;-62